createdAt,value
2023-12-11T00:01:35.381Z,7.13
2023-12-11T00:04:02.378Z,10.88
2023-12-11T00:06:29.274Z,11.73
2023-12-11T00:08:56.107Z,9.32
2023-12-11T00:11:23.760Z,5.38
2023-12-11T00:13:50.742Z,6.57
2023-12-11T00:16:20.315Z,6.90
2023-12-11T00:21:14.827Z,7.78
2023-12-11T00:23:41.501Z,4.45
2023-12-11T00:26:09.055Z,8.25
2023-12-11T00:28:35.808Z,5.63
2023-12-11T00:31:02.901Z,4.60
2023-12-11T00:33:29.943Z,9.20
2023-12-11T00:35:56.760Z,3.60
2023-12-11T00:38:23.439Z,5.70
2023-12-11T00:40:51.520Z,8.27
2023-12-11T00:43:19.914Z,8.95
2023-12-11T00:45:46.630Z,4.25
2023-12-11T00:48:13.547Z,4.60
2023-12-11T00:50:40.266Z,4.78
2023-12-11T00:53:07.028Z,2.17
2023-12-11T00:55:33.704Z,4.90
2023-12-11T00:58:00.387Z,5.38
2023-12-11T01:00:27.068Z,4.85
2023-12-11T01:02:53.769Z,1.85
2023-12-11T01:05:20.451Z,2.38
2023-12-11T01:07:47.213Z,4.78
2023-12-11T01:10:13.950Z,4.68
2023-12-11T01:12:40.816Z,3.00
2023-12-11T01:15:08.234Z,3.95
2023-12-11T01:17:39.159Z,3.72
2023-12-11T01:20:08.916Z,3.03
2023-12-11T01:22:36.006Z,6.30
2023-12-11T01:25:04.135Z,5.97
2023-12-11T01:27:31.865Z,6.22
2023-12-11T01:29:58.865Z,5.78
2023-12-11T01:32:25.664Z,5.35
2023-12-11T01:34:52.453Z,2.42
2023-12-11T01:37:19.985Z,2.03
2023-12-11T01:39:46.787Z,1.42
2023-12-11T01:42:14.363Z,3.17
2023-12-11T01:44:40.995Z,4.40
2023-12-11T01:47:07.961Z,3.50
2023-12-11T01:49:36.798Z,5.97
2023-12-11T01:52:04.787Z,2.88
2023-12-11T01:54:32.216Z,6.72
2023-12-11T01:56:59.005Z,6.53
2023-12-11T01:59:25.968Z,4.18
2023-12-11T02:01:53.067Z,4.95
2023-12-11T02:04:20.223Z,4.82
2023-12-11T02:06:47.173Z,3.58
2023-12-11T02:09:14.048Z,4.70
2023-12-11T02:11:42.073Z,3.38
2023-12-11T02:14:09.258Z,6.07
2023-12-11T02:16:36.721Z,3.17
2023-12-11T02:19:03.698Z,4.60
2023-12-11T02:21:30.663Z,5.25
2023-12-11T02:24:16.211Z,2.63
2023-12-11T02:26:43.973Z,6.75
2023-12-11T02:29:10.701Z,3.83
2023-12-11T02:31:37.743Z,7.43
2023-12-11T02:34:04.667Z,5.13
2023-12-11T02:36:31.660Z,4.43
2023-12-11T02:38:59.043Z,4.40
2023-12-11T02:41:26.244Z,1.73
2023-12-11T02:43:53.062Z,5.97
2023-12-11T02:46:19.822Z,3.53
2023-12-11T02:48:46.569Z,7.72
2023-12-11T02:51:13.552Z,4.15
2023-12-11T02:53:40.246Z,2.00
2023-12-11T02:56:07.414Z,5.10
2023-12-11T02:58:34.076Z,6.25
2023-12-11T03:01:01.210Z,2.35
2023-12-11T03:03:27.991Z,7.13
2023-12-11T03:05:55.322Z,3.65
2023-12-11T03:08:21.967Z,5.65
2023-12-11T03:10:50.460Z,4.63
2023-12-11T03:13:17.515Z,6.83
2023-12-11T03:15:44.335Z,5.18
2023-12-11T03:18:11.677Z,5.47
2023-12-11T03:20:38.419Z,4.93
2023-12-11T03:23:05.133Z,2.22
2023-12-11T03:25:31.774Z,4.85
2023-12-11T03:27:58.591Z,8.77
2023-12-11T03:30:25.243Z,7.07
2023-12-11T03:32:51.939Z,4.75
2023-12-11T03:35:18.864Z,7.30
2023-12-11T03:37:45.593Z,4.90
2023-12-11T03:40:12.741Z,3.25
2023-12-11T03:42:39.545Z,15.15
2023-12-11T03:45:06.612Z,8.73
2023-12-11T03:47:33.653Z,8.00
2023-12-11T03:50:00.519Z,4.72
2023-12-11T03:52:27.349Z,9.07
2023-12-11T03:54:54.051Z,6.13
2023-12-11T03:57:20.679Z,11.15
2023-12-11T03:59:47.378Z,12.90
2023-12-11T04:02:14.303Z,15.65
2023-12-11T04:04:41.102Z,6.68
2023-12-11T04:07:07.927Z,11.63
2023-12-11T04:09:34.643Z,9.70
2023-12-11T04:12:01.319Z,9.00
2023-12-11T04:14:28.027Z,7.22
2023-12-11T04:16:54.647Z,9.18
2023-12-11T04:19:21.487Z,7.82
2023-12-11T04:21:48.196Z,9.95
2023-12-11T04:24:15.279Z,9.23
2023-12-11T04:26:42.235Z,7.03
2023-12-11T04:29:09.118Z,7.85
2023-12-11T04:31:35.830Z,8.00
2023-12-11T04:34:03.161Z,5.93
2023-12-11T04:36:30.031Z,7.50
2023-12-11T04:38:56.674Z,3.22
2023-12-11T04:41:23.342Z,11.80
2023-12-11T04:43:50.030Z,10.25
2023-12-11T04:46:16.778Z,6.78
2023-12-11T04:48:43.607Z,15.50
2023-12-11T04:51:10.287Z,7.43
2023-12-11T04:53:36.923Z,6.03
2023-12-11T04:56:08.176Z,13.25
2023-12-11T04:58:34.989Z,14.35
2023-12-11T05:01:01.828Z,6.35
2023-12-11T05:03:28.539Z,12.32
2023-12-11T05:05:55.250Z,9.43
2023-12-11T05:08:21.938Z,5.90
2023-12-11T05:10:48.592Z,9.70
2023-12-11T05:13:15.440Z,12.75
2023-12-11T05:15:42.336Z,7.15
2023-12-11T05:18:09.145Z,18.45
2023-12-11T05:20:35.777Z,12.70
2023-12-11T05:23:02.696Z,9.77
2023-12-11T05:25:29.468Z,4.55
2023-12-11T05:27:56.217Z,9.70
2023-12-11T05:30:24.473Z,5.72
2023-12-11T05:32:51.682Z,8.05
2023-12-11T05:35:18.683Z,9.50
2023-12-11T05:37:45.431Z,11.80
2023-12-11T05:40:22.138Z,12.13
2023-12-11T05:42:51.680Z,8.68
2023-12-11T05:45:18.460Z,9.68
2023-12-11T05:47:45.131Z,9.10
2023-12-11T05:50:13.093Z,9.95
2023-12-11T05:52:39.789Z,13.32
2023-12-11T05:55:06.715Z,12.30
2023-12-11T05:57:33.592Z,9.05
2023-12-11T06:00:00.335Z,15.60
2023-12-11T06:02:27.108Z,8.45
2023-12-11T06:04:53.956Z,11.43
2023-12-11T06:07:20.858Z,4.13
2023-12-11T06:09:47.565Z,12.15
2023-12-11T06:12:14.311Z,11.18
2023-12-11T06:14:43.308Z,7.70
2023-12-11T06:17:11.242Z,9.88
2023-12-11T06:19:41.911Z,4.10
2023-12-11T06:22:08.753Z,12.40
2023-12-11T06:24:35.521Z,5.07
2023-12-11T06:27:02.588Z,11.63
2023-12-11T06:29:29.298Z,11.70
2023-12-11T06:31:55.966Z,10.10
2023-12-11T06:34:22.692Z,6.88
2023-12-11T06:36:49.424Z,9.13
2023-12-11T06:39:16.559Z,7.32
2023-12-11T06:41:43.200Z,7.53
2023-12-11T06:44:10.804Z,9.73
2023-12-11T06:46:38.218Z,11.63
2023-12-11T06:49:05.077Z,8.30
2023-12-11T06:51:32.106Z,10.88
2023-12-11T06:54:01.714Z,12.80
2023-12-11T06:58:55.683Z,9.02
2023-12-11T07:01:26.599Z,9.55
2023-12-11T07:03:55.072Z,21.42
2023-12-11T07:06:21.872Z,11.65
2023-12-11T07:08:48.729Z,10.98
2023-12-11T07:11:15.449Z,11.57
2023-12-11T07:13:45.997Z,10.13
2023-12-11T07:16:13.196Z,10.57
2023-12-11T07:18:40.686Z,11.70
2023-12-11T07:21:11.514Z,7.90
2023-12-11T07:23:39.420Z,6.68
2023-12-11T07:26:08.838Z,6.85
2023-12-11T07:28:37.260Z,4.88
2023-12-11T07:31:05.154Z,4.28
2023-12-11T07:33:32.250Z,7.32
2023-12-11T07:35:59.180Z,7.78
2023-12-11T07:38:28.874Z,8.15
2023-12-11T07:43:23.612Z,8.93
2023-12-11T07:45:51.128Z,9.27
2023-12-11T07:48:18.217Z,9.10
2023-12-11T07:50:45.057Z,8.55
2023-12-11T07:53:11.744Z,9.30
2023-12-11T07:55:38.697Z,5.35
2023-12-11T07:58:05.466Z,10.23
2023-12-11T08:00:32.431Z,8.20
2023-12-11T08:02:59.548Z,9.13
2023-12-11T08:05:26.517Z,7.13
2023-12-11T08:07:53.657Z,6.40
2023-12-11T08:10:20.569Z,4.13
2023-12-11T08:12:53.487Z,5.30
2023-12-11T08:15:20.602Z,5.30
2023-12-11T08:17:47.529Z,7.78
2023-12-11T08:20:18.483Z,8.85
2023-12-11T08:22:45.811Z,6.22
2023-12-11T08:25:14.571Z,6.07
2023-12-11T08:27:43.202Z,7.47
2023-12-11T08:30:11.189Z,7.07
2023-12-11T08:32:39.388Z,9.35
2023-12-11T08:35:06.965Z,6.53
2023-12-11T08:37:34.858Z,7.32
2023-12-11T08:40:02.064Z,5.75
2023-12-11T08:42:29.395Z,6.65
2023-12-11T08:44:56.220Z,9.07
2023-12-11T08:47:23.296Z,10.40
2023-12-11T08:49:50.097Z,7.20
2023-12-11T08:52:16.951Z,8.60
2023-12-11T08:54:43.668Z,14.57
2023-12-11T08:57:10.583Z,10.55
2023-12-11T08:59:38.929Z,9.30
2023-12-11T09:02:06.258Z,12.00
2023-12-11T09:04:34.095Z,9.25
2023-12-11T09:07:01.013Z,16.25
2023-12-11T09:09:27.950Z,12.65
2023-12-11T09:11:54.637Z,6.53
2023-12-11T09:14:21.378Z,6.40
2023-12-11T09:16:48.118Z,6.10
2023-12-11T09:19:14.916Z,9.38
2023-12-11T09:21:42.318Z,10.32
2023-12-11T09:24:10.986Z,9.35
2023-12-11T09:26:37.761Z,14.55
2023-12-11T09:29:04.492Z,7.55
2023-12-11T09:31:31.218Z,7.78
2023-12-11T09:33:58.178Z,16.13
2023-12-11T09:36:24.996Z,13.27
2023-12-11T09:38:51.606Z,9.52
2023-12-11T09:41:19.755Z,11.60
2023-12-11T09:43:49.248Z,12.85
2023-12-11T09:46:19.242Z,10.93
2023-12-11T09:48:48.259Z,15.38
2023-12-11T09:51:16.385Z,10.10
2023-12-11T09:53:43.639Z,15.57
2023-12-11T09:56:13.990Z,9.10
2023-12-11T09:58:41.223Z,14.50
2023-12-11T10:01:09.030Z,7.82
2023-12-11T10:03:35.863Z,15.73
2023-12-11T10:06:04.406Z,13.20
2023-12-11T10:08:31.596Z,6.70
2023-12-11T10:11:13.780Z,14.38
2023-12-11T10:13:41.453Z,8.50
2023-12-11T10:16:36.802Z,10.80
2023-12-11T10:19:04.331Z,7.05
2023-12-11T10:21:40.168Z,11.57
2023-12-11T10:24:10.667Z,10.40
2023-12-11T10:26:39.459Z,9.45
2023-12-11T10:29:23.922Z,21.63
2023-12-11T10:31:51.477Z,11.43
2023-12-11T10:34:18.790Z,9.75
2023-12-11T10:36:53.001Z,9.13
2023-12-11T10:39:25.279Z,11.02
2023-12-11T10:41:53.590Z,11.57
2023-12-11T10:44:39.840Z,7.97
2023-12-11T10:47:13.222Z,13.82
2023-12-11T10:49:41.447Z,13.50
2023-12-11T10:52:08.609Z,17.38
2023-12-11T10:54:39.508Z,14.70
2023-12-11T10:57:12.239Z,11.88
2023-12-11T10:59:39.816Z,11.00
2023-12-11T11:02:08.539Z,11.63
2023-12-11T11:04:39.124Z,7.87
2023-12-11T11:07:33.683Z,14.25
2023-12-11T11:10:14.771Z,10.52
2023-12-11T11:12:52.366Z,13.98
2023-12-11T11:15:23.685Z,5.05
2023-12-11T11:18:04.238Z,12.02
2023-12-11T11:20:33.098Z,9.48
2023-12-11T11:23:18.125Z,11.68
2023-12-11T11:25:53.412Z,12.18
2023-12-11T11:28:44.279Z,8.20
2023-12-11T11:31:20.309Z,9.43
2023-12-11T11:33:54.781Z,7.30
2023-12-11T11:36:41.948Z,7.25
2023-12-11T11:39:08.944Z,10.35
2023-12-11T11:41:36.056Z,11.77
2023-12-11T11:44:07.861Z,4.30
2023-12-11T11:46:51.469Z,11.15
2023-12-11T11:49:33.383Z,6.80
2023-12-11T11:52:03.557Z,9.70
2023-12-11T11:54:32.249Z,14.27
2023-12-11T11:56:59.057Z,14.55
2023-12-11T11:59:25.741Z,10.15
2023-12-11T12:01:59.790Z,14.38
2023-12-11T12:04:35.469Z,11.63
2023-12-11T12:07:04.669Z,12.10
2023-12-11T12:09:32.436Z,15.45
2023-12-11T12:11:59.956Z,8.25
2023-12-11T12:14:29.490Z,7.25
2023-12-11T12:19:33.563Z,9.52
2023-12-11T12:22:03.027Z,10.88
2023-12-11T12:24:31.388Z,10.00
2023-12-11T12:27:04.671Z,10.95
2023-12-11T12:29:33.103Z,8.07
2023-12-11T12:32:03.325Z,8.30
2023-12-11T12:34:34.050Z,11.32
2023-12-11T12:37:02.835Z,9.93
2023-12-11T12:39:29.733Z,7.63
2023-12-11T12:41:57.432Z,10.13
2023-12-11T12:44:24.290Z,7.10
2023-12-11T12:46:51.396Z,11.05
2023-12-11T12:49:19.060Z,5.60
2023-12-11T12:51:55.869Z,4.90
2023-12-11T12:54:22.804Z,7.60
2023-12-11T12:56:58.004Z,5.65
2023-12-11T12:59:25.506Z,10.70
2023-12-11T13:01:55.829Z,7.03
2023-12-11T13:04:24.313Z,8.10
2023-12-11T13:06:51.298Z,9.55
2023-12-11T13:09:32.148Z,12.25
2023-12-11T13:11:59.201Z,6.22
2023-12-11T13:14:28.842Z,7.80
2023-12-11T13:19:25.410Z,10.35
2023-12-11T13:21:52.730Z,5.57
2023-12-11T13:24:19.767Z,15.80
2023-12-11T13:26:46.447Z,7.53
2023-12-11T13:29:13.296Z,7.07
2023-12-11T13:31:40.034Z,2.53
2023-12-11T13:34:06.687Z,8.20
2023-12-11T13:36:33.884Z,6.75
2023-12-11T13:39:00.610Z,10.80
2023-12-11T13:41:27.414Z,8.13
2023-12-11T13:43:54.135Z,7.82
2023-12-11T13:46:20.938Z,5.35
2023-12-11T13:48:47.816Z,7.20
2023-12-11T13:51:14.709Z,7.80
2023-12-11T13:53:41.499Z,7.30
2023-12-11T13:56:08.397Z,12.55
2023-12-11T13:58:35.220Z,13.68
2023-12-11T14:01:02.634Z,8.73
2023-12-11T14:03:29.487Z,6.40
2023-12-11T14:05:56.464Z,7.07
2023-12-11T14:08:23.308Z,9.30
2023-12-11T14:10:50.320Z,13.88
2023-12-11T14:13:17.218Z,13.82
2023-12-11T14:15:47.988Z,6.15
2023-12-11T14:18:15.366Z,13.35
2023-12-11T14:20:43.368Z,6.93
2023-12-11T14:23:10.257Z,10.55
2023-12-11T14:25:38.485Z,4.35
2023-12-11T14:28:06.552Z,13.52
2023-12-11T14:30:35.835Z,13.52
2023-12-11T14:33:04.212Z,10.18
2023-12-11T14:35:31.124Z,7.78
2023-12-11T14:37:57.847Z,8.48
2023-12-11T14:40:24.562Z,4.95
2023-12-11T14:42:51.351Z,7.32
2023-12-11T14:45:18.275Z,7.60
2023-12-11T14:47:48.237Z,15.40
2023-12-11T14:50:15.335Z,12.93
2023-12-11T14:52:42.887Z,9.45
2023-12-11T14:55:09.942Z,7.93
2023-12-11T14:57:37.978Z,13.93
2023-12-11T15:00:07.087Z,5.45
2023-12-11T15:02:34.473Z,4.60
2023-12-11T15:05:01.494Z,7.63
2023-12-11T15:07:29.044Z,2.33
2023-12-11T15:09:56.325Z,6.80
2023-12-11T15:12:24.133Z,4.25
2023-12-11T15:14:51.451Z,6.97
2023-12-11T15:17:18.393Z,9.23
2023-12-11T15:19:46.433Z,12.38
2023-12-11T15:22:13.730Z,8.25
2023-12-11T15:24:40.575Z,9.55
2023-12-11T15:27:07.929Z,5.95
2023-12-11T15:29:36.691Z,1.90
2023-12-11T15:32:03.924Z,4.22
2023-12-11T15:34:31.594Z,5.25
2023-12-11T15:36:58.862Z,4.65
2023-12-11T15:39:25.692Z,9.90
2023-12-11T15:41:52.625Z,11.27
2023-12-11T15:44:19.293Z,11.48
2023-12-11T15:46:46.667Z,5.35
2023-12-11T15:49:13.552Z,7.22
2023-12-11T15:51:40.417Z,4.60
2023-12-11T15:54:07.113Z,6.93
2023-12-11T15:56:33.926Z,5.93
2023-12-11T15:59:00.654Z,7.55
2023-12-11T16:01:28.739Z,4.10
2023-12-11T16:03:55.824Z,9.07
2023-12-11T16:06:22.837Z,9.13
2023-12-11T16:08:49.681Z,7.30
2023-12-11T16:11:16.930Z,6.85
2023-12-11T16:13:44.189Z,4.18
2023-12-11T16:16:12.915Z,8.40
2023-12-11T16:18:47.575Z,6.03
2023-12-11T16:21:14.629Z,6.22
2023-12-11T16:23:41.314Z,4.63
2023-12-11T16:26:14.170Z,4.88
2023-12-11T16:28:41.499Z,4.40
2023-12-11T16:31:08.275Z,11.18
2023-12-11T16:33:35.088Z,5.65
2023-12-11T16:36:01.921Z,6.05
2023-12-11T16:38:28.656Z,12.75
2023-12-11T16:40:55.432Z,7.85
2023-12-11T16:43:22.197Z,11.07
2023-12-11T16:45:48.957Z,6.85
2023-12-11T16:48:17.340Z,5.68
2023-12-11T16:50:44.978Z,8.45
2023-12-11T16:53:11.725Z,10.38
2023-12-11T16:55:38.563Z,8.48
2023-12-11T16:58:05.398Z,8.63
2023-12-11T17:00:32.189Z,5.35
2023-12-11T17:02:58.871Z,8.80
2023-12-11T17:05:25.747Z,7.22
2023-12-11T17:07:52.619Z,7.88
2023-12-11T17:10:19.388Z,10.75
2023-12-11T17:12:46.839Z,5.03
2023-12-11T17:15:13.677Z,8.95
2023-12-11T17:17:40.511Z,5.65
2023-12-11T17:20:08.123Z,12.48
2023-12-11T17:22:34.913Z,15.40
2023-12-11T17:25:04.182Z,8.90
2023-12-11T17:27:34.897Z,6.65
2023-12-11T17:30:03.791Z,6.65
2023-12-11T17:32:32.550Z,6.10
2023-12-11T17:35:00.002Z,10.80
2023-12-11T17:37:26.885Z,7.13
2023-12-11T17:39:54.725Z,7.82
2023-12-11T17:42:21.762Z,8.82
2023-12-11T17:44:48.434Z,4.50
2023-12-11T17:47:15.221Z,10.93
2023-12-11T17:49:42.068Z,12.20
2023-12-11T17:52:10.333Z,10.40
2023-12-11T17:54:37.184Z,10.70
2023-12-11T17:57:04.603Z,6.57
2023-12-11T17:59:31.457Z,6.22
2023-12-11T18:01:58.500Z,11.50
2023-12-11T18:04:25.382Z,9.05
2023-12-11T18:06:52.682Z,6.70
2023-12-11T18:09:19.362Z,8.73
2023-12-11T18:11:46.116Z,7.55
2023-12-11T18:14:12.750Z,7.43
2023-12-11T18:16:39.745Z,7.32
2023-12-11T18:19:06.644Z,11.02
2023-12-11T18:21:33.373Z,6.35
2023-12-11T18:24:00.350Z,8.48
2023-12-11T18:26:27.022Z,8.57
2023-12-11T18:28:54.096Z,8.63
2023-12-11T18:31:21.110Z,10.27
2023-12-11T18:33:48.365Z,6.88
2023-12-11T18:36:15.232Z,6.60
2023-12-11T18:38:41.855Z,7.68
2023-12-11T18:41:08.493Z,9.27
2023-12-11T18:43:36.810Z,5.40
2023-12-11T18:46:03.628Z,9.30
2023-12-11T18:48:30.428Z,8.27
2023-12-11T18:50:57.215Z,9.43
2023-12-11T18:53:23.993Z,6.80
2023-12-11T18:58:34.687Z,8.25
2023-12-11T19:01:02.924Z,4.20
2023-12-11T19:03:29.836Z,9.13
2023-12-11T19:05:56.649Z,12.25
2023-12-11T19:08:23.266Z,9.50
2023-12-11T19:10:49.979Z,7.95
2023-12-11T19:13:16.877Z,13.88
2023-12-11T19:15:43.615Z,8.73
2023-12-11T19:18:10.445Z,10.65
2023-12-11T19:20:37.314Z,7.07
2023-12-11T19:23:03.945Z,9.73
2023-12-11T19:25:30.665Z,6.78
2023-12-11T19:27:57.488Z,8.15
2023-12-11T19:30:25.635Z,10.73
2023-12-11T19:32:52.256Z,8.95
2023-12-11T19:35:19.019Z,10.38
2023-12-11T19:37:46.541Z,13.55
2023-12-11T19:40:13.890Z,6.78
2023-12-11T19:42:48.060Z,9.98
2023-12-11T19:45:15.905Z,11.38
2023-12-11T19:47:43.202Z,14.63
2023-12-11T19:50:10.730Z,6.47
2023-12-11T19:52:37.592Z,7.68
2023-12-11T19:55:04.732Z,13.27
2023-12-11T19:57:31.675Z,9.40
2023-12-11T19:59:58.598Z,8.23
2023-12-11T20:02:25.242Z,14.05
2023-12-11T20:04:52.068Z,12.55
2023-12-11T20:07:19.814Z,6.95
2023-12-11T20:09:46.916Z,6.78
2023-12-11T20:12:14.774Z,13.85
2023-12-11T20:14:41.966Z,11.82
2023-12-11T20:17:08.771Z,13.05
2023-12-11T20:19:35.687Z,8.38
2023-12-11T20:22:02.626Z,13.80
2023-12-11T20:24:29.773Z,11.52
2023-12-11T20:26:56.616Z,18.02
2023-12-11T20:29:23.571Z,14.32
2023-12-11T20:31:52.983Z,9.02
2023-12-11T20:34:19.953Z,15.20
2023-12-11T20:36:49.169Z,12.65
2023-12-11T20:39:15.967Z,21.50
2023-12-11T20:41:42.606Z,8.57
2023-12-11T20:44:09.348Z,12.93
2023-12-11T20:46:36.677Z,26.00
2023-12-11T20:49:03.529Z,17.00
2023-12-11T20:51:30.396Z,21.83
2023-12-11T20:53:57.100Z,17.27
2023-12-11T20:56:25.413Z,10.23
2023-12-11T20:58:54.484Z,7.78
2023-12-11T21:01:31.917Z,6.68
2023-12-11T21:04:00.812Z,14.88
2023-12-11T21:06:28.677Z,10.57
2023-12-11T21:08:56.460Z,11.32
2023-12-11T21:11:23.900Z,11.35
2023-12-11T21:13:50.855Z,8.63
2023-12-11T21:16:18.627Z,12.25
2023-12-11T21:18:45.948Z,16.02
2023-12-11T21:21:21.200Z,12.75
2023-12-11T21:23:49.288Z,9.23
2023-12-11T21:26:17.465Z,20.33
2023-12-11T21:28:44.807Z,21.27
2023-12-11T21:31:38.648Z,12.70
2023-12-11T21:34:05.437Z,15.45
2023-12-11T21:36:32.790Z,14.82
2023-12-11T21:39:00.130Z,11.32
2023-12-11T21:41:27.274Z,16.45
2023-12-11T21:43:54.338Z,20.60
2023-12-11T21:46:21.998Z,20.10
2023-12-11T21:48:49.985Z,19.00
2023-12-11T21:51:19.267Z,18.60
2023-12-11T21:53:46.789Z,15.80
2023-12-11T21:56:14.542Z,17.63
2023-12-11T21:58:45.142Z,16.35
2023-12-11T22:01:11.953Z,16.80
2023-12-11T22:03:38.873Z,15.27
2023-12-11T22:06:05.887Z,24.38
2023-12-11T22:08:32.649Z,17.65
2023-12-11T22:10:59.349Z,20.02
2023-12-11T22:13:26.271Z,25.73
2023-12-11T22:15:53.125Z,13.43
2023-12-11T22:18:19.999Z,12.63
2023-12-11T22:20:47.689Z,25.23
2023-12-11T22:23:14.396Z,18.92
2023-12-11T22:25:41.176Z,18.85
2023-12-11T22:28:08.257Z,23.63
2023-12-11T22:30:35.058Z,12.18
2023-12-11T22:33:01.717Z,24.27
2023-12-11T22:35:28.744Z,24.10
2023-12-11T22:37:55.499Z,14.35
2023-12-11T22:40:22.358Z,15.93
2023-12-11T22:42:49.266Z,13.05
2023-12-11T22:45:17.746Z,18.70
2023-12-11T22:47:45.068Z,27.00
2023-12-11T22:50:11.979Z,25.38
2023-12-11T22:52:38.906Z,19.02
2023-12-11T22:55:06.307Z,17.85
2023-12-11T22:57:33.545Z,18.20
2023-12-11T23:00:00.432Z,19.25
2023-12-11T23:02:27.793Z,31.50
2023-12-11T23:04:56.627Z,20.65
2023-12-11T23:07:23.539Z,17.02
2023-12-11T23:09:50.238Z,19.75
2023-12-11T23:12:18.144Z,24.25
2023-12-11T23:14:45.100Z,22.38
2023-12-11T23:17:11.737Z,19.20
2023-12-11T23:19:38.491Z,27.88
2023-12-11T23:22:05.972Z,14.35
2023-12-11T23:24:32.730Z,17.08
2023-12-11T23:26:59.360Z,13.30
2023-12-11T23:29:26.127Z,14.88
2023-12-11T23:31:52.806Z,21.60
2023-12-11T23:34:19.777Z,17.48
2023-12-11T23:36:46.578Z,14.10
2023-12-11T23:39:13.288Z,21.00
2023-12-11T23:41:39.957Z,15.73
2023-12-11T23:44:06.663Z,13.50
2023-12-11T23:46:33.410Z,13.95
2023-12-11T23:49:00.158Z,17.05
2023-12-11T23:51:26.979Z,27.23
2023-12-11T23:53:54.146Z,18.52
2023-12-11T23:56:20.968Z,15.82
2023-12-11T23:58:47.632Z,23.27
